Time;durP1;ratioP1;P1;durP2;ratioP2;P2;SDS_P1;SDS_P2;PMS_P1;PMS_P2;Temp;Humidity;BMP_temperature;BMP_pressure;BME280_temperature;BME280_humidity;BME280_pressure;Samples;Min_cycle;Max_cycle;Signal;HPM_P1;HPM_P2
2022/03/27 00:01:02;;;;;;;1.70;1.05;;;-0.90;1.00;;;-1.71;55.01;99190.41;5023840;28;128896;-72
2022/03/27 00:03:30;;;;;;;2.30;1.30;;;-0.90;1.00;;;-1.79;55.34;99182.78;5005831;28;118931;-70
2022/03/27 00:05:59;;;;;;;4.30;1.80;;;-0.90;1.00;;;-1.88;55.71;99199.13;5003411;28;119363;-71
2022/03/27 00:08:28;;;;;;;4.82;1.65;;;-1.00;1.00;;;-1.87;56.73;99195.44;5020870;28;130499;-71
2022/03/27 00:13:43;;;;;;;1.05;1.00;;;-1.10;1.00;;;-1.91;54.80;99209.47;5021207;28;119659;-72
2022/03/27 00:16:13;;;;;;;1.92;1.40;;;-1.00;1.00;;;-1.96;55.83;99223.47;5006196;28;118637;-70
2022/03/27 00:18:42;;;;;;;3.03;1.27;;;-1.10;1.00;;;-2.02;56.41;99197.81;5011615;28;129619;-71
2022/03/27 00:21:11;;;;;;;4.63;1.60;;;-1.20;1.00;;;-2.09;56.96;99234.34;5020523;28;130339;-71
2022/03/27 00:23:40;;;;;;;3.35;1.60;;;-1.30;1.00;;;-2.05;57.36;99216.91;5005579;28;119522;-72
2022/03/27 00:26:09;;;;;;;2.15;1.23;;;-1.30;1.00;;;-2.09;56.72;99207.75;5021155;28;119501;-70
2022/03/27 00:28:38;;;;;;;3.97;1.58;;;-1.20;1.00;;;-2.12;57.56;99227.66;5002424;28;130766;-72
2022/03/27 00:31:09;;;;;;;1.67;1.20;;;-1.30;1.00;;;-2.09;56.90;99213.06;5020367;28;129518;-71
2022/03/27 00:33:41;;;;;;;2.25;1.33;;;-1.30;1.00;;;-2.13;56.95;99238.53;5020365;28;119599;-71
2022/03/27 00:36:13;;;;;;;2.65;1.35;;;-1.30;1.00;;;-2.10;57.07;99232.72;5020936;28;119279;-71
2022/03/27 00:38:42;;;;;;;1.90;1.20;;;-1.30;1.00;;;-1.97;56.58;99237.78;5005120;28;129175;-72
2022/03/27 00:41:12;;;;;;;1.58;1.20;;;-1.20;1.00;;;-1.85;56.41;99238.56;5022124;28;129290;-72
2022/03/27 00:43:42;;;;;;;2.25;1.02;;;-1.10;1.00;;;-1.74;56.12;99249.44;5011670;28;121966;-74
2022/03/27 00:46:11;;;;;;;5.22;1.30;;;-1.00;1.00;;;-1.75;57.10;99256.56;5002123;28;121743;-69
2022/03/27 00:48:41;;;;;;;3.00;1.40;;;-1.00;1.00;;;-1.68;57.42;99243.97;5002545;28;130259;-72
2022/03/27 00:51:10;;;;;;;2.85;1.33;;;-0.90;1.00;;;-1.66;57.54;99260.47;5003709;28;128631;-71
2022/03/27 00:53:40;;;;;;;1.73;1.23;;;-0.90;1.00;;;-1.60;57.92;99257.94;5023134;28;120509;-71
2022/03/27 00:56:09;;;;;;;4.20;1.98;;;-0.90;1.00;;;-1.63;61.39;99259.22;5002566;28;120854;-72
2022/03/27 00:58:38;;;;;;;2.42;1.55;;;-1.00;1.00;;;-1.77;66.76;99271.19;5019685;28;129733;-72
2022/03/27 01:01:19;;;;;;;2.45;1.70;;;-1.20;1.00;;;-2.10;71.25;99285.91;5002472;28;129316;-71
2022/03/27 01:03:49;;;;;;;8.60;1.90;;;-1.50;1.00;;;-2.38;74.07;99308.72;5020136;28;119729;-71
2022/03/27 01:06:32;;;;;;;2.65;1.60;;;-1.70;1.00;;;-2.51;74.90;99293.00;5020291;28;119732;-70
2022/03/27 01:11:49;;;;;;;6.65;2.10;;;-1.70;1.00;;;-2.71;76.31;99289.63;4990857;28;129203;-71
2022/03/27 01:14:28;;;;;;;3.72;2.22;;;-1.80;1.00;;;-2.67;75.85;99281.19;4988912;28;119174;-72
2022/03/27 01:17:05;;;;;;;3.63;1.85;;;-1.80;1.00;;;-2.63;75.67;99277.84;5020475;28;119609;-73
2022/03/27 01:19:35;;;;;;;;;;;-1.80;1.00;;;-2.64;74.38;99278.09;5005681;28;128299;-71
2022/03/27 01:22:05;;;;;;;3.13;1.77;;;-1.90;1.00;;;-2.69;73.37;99284.09;5027934;27;130366;-71
2022/03/27 01:24:34;;;;;;;2.08;1.67;;;-1.90;1.00;;;-2.64;71.77;99292.16;5043628;27;121830;-73
2022/03/27 01:27:03;;;;;;;3.60;2.10;;;-1.90;1.00;;;-2.65;71.58;99301.19;5022902;27;119829;-70
2022/03/27 01:29:32;;;;;;;2.85;1.35;;;-1.80;1.00;;;-2.67;69.88;99297.94;5008451;27;129816;-71
2022/03/27 01:32:01;;;;;;;1.98;1.65;;;-1.80;1.00;;;-2.62;69.99;99306.03;5021756;27;130427;-70
2022/03/27 01:34:29;;;;;;;4.00;1.80;;;-1.80;1.00;;;-2.64;69.15;99329.38;5023898;27;123778;-74
2022/03/27 01:37:01;;;;;;;2.28;1.55;;;-1.80;1.00;;;-2.68;68.10;99312.28;5025065;27;120747;-71
2022/03/27 01:39:32;;;;;;;3.72;1.65;;;-1.80;1.00;;;-2.70;67.83;99327.63;5024448;27;129133;-72
2022/03/27 01:42:00;;;;;;;3.00;1.40;;;-1.80;1.00;;;-2.70;67.27;99303.72;5021575;27;129213;-69
2022/03/27 01:44:29;;;;;;;3.47;1.67;;;-1.80;1.00;;;-2.66;67.71;99336.75;5039803;27;119570;-69
2022/03/27 01:46:59;;;;;;;5.88;1.83;;;-1.70;1.00;;;-2.66;68.55;99312.06;5007734;27;118304;-70
2022/03/27 01:49:29;;;;;;;4.80;2.28;;;-1.80;1.00;;;-2.64;67.68;99323.25;5039375;27;130492;-72
2022/03/27 01:51:58;;;;;;;4.30;1.58;;;-1.80;1.00;;;-2.51;65.92;99333.66;5007978;27;128094;-70
2022/03/27 01:54:26;;;;;;;2.72;1.60;;;-1.70;1.00;;;-2.49;65.27;99325.44;5040628;27;119023;-73
2022/03/27 01:56:57;;;;;;;1.92;1.40;;;-1.60;1.00;;;-2.42;65.31;99334.13;5024404;27;119419;-71
2022/03/27 01:59:26;;;;;;;3.45;1.67;;;-1.60;1.00;;;-2.31;65.36;99328.00;5038152;27;129706;-70
2022/03/27 02:01:55;;;;;;;2.78;1.60;;;-1.50;1.00;;;-2.30;65.48;99360.72;5041746;27;129972;-72
2022/03/27 02:04:24;;;;;;;3.60;1.70;;;-1.50;1.00;;;-2.31;67.94;99362.56;5039276;27;119670;-72
2022/03/27 02:06:53;;;;;;;4.22;1.55;;;-1.60;1.00;;;-2.45;67.38;99354.00;5039603;27;119444;-73
2022/03/27 02:09:23;;;;;;;2.33;1.63;;;-1.60;1.00;;;-2.55;66.66;99351.91;5021069;27;129793;-69
2022/03/27 02:11:51;;;;;;;3.28;1.80;;;-1.70;1.00;;;-2.59;66.33;99358.72;5023727;27;129188;-72
2022/03/27 02:14:24;;;;;;;2.13;1.60;;;-1.80;1.00;;;-2.51;64.91;99351.44;5024370;27;118877;-73
2022/03/27 02:16:53;;;;;;;2.60;1.75;;;-1.70;1.00;;;-2.56;65.38;99371.53;5039872;27;119235;-73
2022/03/27 02:19:22;;;;;;;1.63;1.30;;;-1.80;1.00;;;-2.49;62.61;99373.28;5023788;27;128873;-69
2022/03/27 02:21:51;;;;;;;1.90;1.20;;;-1.60;1.00;;;-2.36;62.11;99375.75;5006651;27;129210;-71
2022/03/27 02:24:19;;;;;;;3.60;1.42;;;-1.60;1.00;;;-2.42;62.11;99374.78;5037641;27;121926;-72
2022/03/27 02:26:51;;;;;;;2.53;1.35;;;-1.60;1.00;;;-2.43;62.12;99369.72;5024009;27;121434;-75
2022/03/27 02:29:21;;;;;;;5.28;1.73;;;-1.60;1.00;;;-2.37;61.92;99376.78;5023757;27;129915;-71
2022/03/27 02:31:49;;;;;;;4.40;1.30;;;-1.60;1.00;;;-2.37;62.53;99382.09;5038618;27;129315;-71
2022/03/27 02:34:18;;;;;;;1.83;1.30;;;-1.70;1.00;;;-2.45;63.14;99390.41;5039202;27;119415;-70
2022/03/27 02:36:47;;;;;;;2.75;1.50;;;-1.70;1.00;;;-2.57;64.02;99403.66;5007795;27;119088;-73
2022/03/27 02:39:17;;;;;;;2.75;1.67;;;-1.80;1.00;;;-2.61;64.04;99387.38;5041401;27;130432;-75
2022/03/27 02:41:46;;;;;;;2.63;1.50;;;-1.80;1.00;;;-2.65;64.67;99378.25;5006965;27;129030;-74
2022/03/27 02:44:16;;;;;;;3.90;1.52;;;-1.90;1.00;;;-2.56;65.07;99381.38;5013332;27;119610;-72
2022/03/27 02:46:47;;;;;;;3.20;1.52;;;-1.80;1.00;;;-2.45;65.01;99395.72;5041939;27;119411;-73
2022/03/27 02:49:16;;;;;;;3.08;1.70;;;-1.80;1.00;;;-2.40;65.21;99403.81;5022233;27;129464;-74
2022/03/27 02:51:47;;;;;;;2.55;1.60;;;-1.70;1.00;;;-2.31;65.24;99401.63;5038620;27;130013;-76
2022/03/27 02:54:16;;;;;;;4.63;1.65;;;-1.70;1.00;;;-2.24;64.93;99402.34;5039196;27;120014;-72
2022/03/27 02:56:46;;;;;;;4.50;1.80;;;-1.70;1.00;;;-2.22;65.28;99401.06;5023981;27;118709;-75
2022/03/27 02:59:16;;;;;;;3.58;1.60;;;-1.60;1.00;;;-2.10;64.05;99400.25;5020602;27;130608;-74
2022/03/27 03:01:47;;;;;;;3.60;1.70;;;-1.60;1.00;;;-2.08;63.74;99411.50;5038186;27;129351;-72
2022/03/27 03:04:16;;;;;;;4.35;1.77;;;-1.50;1.00;;;-2.11;62.48;99411.94;5040906;27;119472;-71
2022/03/27 03:06:45;;;;;;;2.90;1.80;;;-1.50;1.00;;;-2.08;62.75;99416.81;5039076;27;119205;-72
2022/03/27 03:09:14;;;;;;;4.57;1.55;;;-1.50;1.00;;;-2.06;62.64;99441.31;5038331;27;129569;-75
2022/03/27 03:11:44;;;;;;;2.63;1.70;;;-1.50;1.00;;;-2.21;62.79;99418.66;4990451;27;128946;-69
2022/03/27 03:14:13;;;;;;;3.90;1.45;;;-1.50;1.00;;;-2.27;64.20;99456.78;5009934;27;121358;-74
2022/03/27 03:16:42;;;;;;;2.30;1.50;;;-1.50;1.00;;;-2.27;64.61;99446.16;5010423;27;121712;-73
2022/03/27 03:19:12;;;;;;;4.25;1.60;;;-1.60;1.00;;;-2.39;67.51;99485.19;5044431;27;131270;-69
2022/03/27 03:21:42;;;;;;;2.63;1.50;;;-1.70;1.00;;;-2.49;70.20;99456.50;5041990;27;129501;-73
2022/03/27 03:24:11;;;;;;;8.02;1.60;;;-1.90;1.00;;;-2.65;70.03;99473.06;5026978;27;119825;-71
2022/03/27 03:26:39;;;;;;;8.57;1.58;;;-1.90;1.00;;;-2.87;70.55;99462.13;5041875;27;119415;-73
2022/03/27 03:29:08;;;;;;;3.50;1.63;;;-2.00;1.00;;;-2.93;70.02;99491.19;5041568;27;129650;-71
2022/03/27 03:31:37;;;;;;;1.90;1.30;;;-2.10;1.00;;;-2.97;67.63;99468.78;5026930;27;129136;-73
2022/03/27 03:34:05;;;;;;;2.95;1.40;;;-2.10;1.00;;;-2.98;67.08;99477.75;5042177;27;120691;-71
2022/03/27 03:36:36;;;;;;;2.72;1.27;;;-2.10;1.00;;;-3.00;67.05;99479.84;5007389;27;119895;-73
2022/03/27 03:39:06;;;;;;;3.58;1.30;;;-2.20;1.00;;;-3.02;65.23;99481.91;5008285;27;129896;-72
2022/03/27 03:41:35;;;;;;;2.03;1.40;;;-2.20;1.00;;;-3.01;64.78;99526.00;5025614;27;129749;-73
2022/03/27 03:44:04;;;;;;;2.42;1.35;;;-2.20;1.00;;;-3.19;65.83;99488.88;5045006;27;119335;-72
2022/03/27 03:46:33;;;;;;;3.33;1.48;;;-2.30;1.00;;;-3.18;66.29;99509.88;5027101;27;119222;-72
2022/03/27 03:49:03;;;;;;;5.53;1.23;;;-2.40;1.00;;;-3.21;66.38;99514.78;5007294;27;130018;-72
2022/03/27 03:51:32;;;;;;;3.65;1.30;;;-2.40;1.00;;;-3.31;67.46;99510.00;5041606;27;129883;-73
2022/03/27 03:54:02;;;;;;;2.70;1.27;;;-2.40;1.00;;;-3.29;67.69;99515.91;5026579;27;119863;-74
2022/03/27 03:56:31;;;;;;;3.67;1.63;;;-2.50;1.00;;;-3.39;67.17;99535.00;5041924;27;119042;-71
2022/03/27 03:59:00;;;;;;;3.20;1.58;;;-2.50;1.00;;;-3.42;67.58;99530.13;5023117;27;129492;-71
2022/03/27 04:01:28;;;;;;;2.72;1.50;;;-2.50;1.00;;;-3.42;68.55;99529.31;5025563;27;130167;-69
2022/03/27 04:03:57;;;;;;;2.35;1.65;;;-2.60;1.00;;;-3.37;68.23;99518.84;5040134;27;122651;-73
2022/03/27 04:06:26;;;;;;;4.22;1.90;;;-2.60;1.00;;;-3.45;67.04;99519.94;5043972;27;122054;-72
2022/03/27 04:08:55;;;;;;;2.03;1.45;;;-2.60;1.00;;;-3.40;66.29;99528.03;5040904;27;130512;-70
2022/03/27 04:11:26;;;;;;;2.25;1.55;;;-2.60;1.00;;;-3.49;67.13;99532.84;5040930;27;129477;-73
2022/03/27 04:13:55;;;;;;;5.90;1.60;;;-2.60;1.00;;;-3.39;67.29;99550.91;5026104;27;118955;-73
2022/03/27 04:16:23;;;;;;;2.50;1.50;;;-2.60;1.00;;;-3.43;66.75;99544.41;5026310;27;118385;-72
2022/03/27 04:18:52;;;;;;;1.80;1.30;;;-2.60;1.00;;;-3.42;66.96;99545.22;5025464;27;129804;-71
2022/03/27 04:21:29;;;;;;;6.60;1.67;;;-2.60;1.00;;;-3.39;66.99;99555.41;5041135;27;129604;-72
2022/03/27 04:24:02;;;;;;;2.83;1.35;;;-2.60;1.00;;;-3.23;66.17;99559.34;5009394;27;118855;-71
2022/03/27 04:27:27;;;;;;;5.40;1.38;;;-2.60;1.00;;;-3.29;65.58;99559.19;5026142;27;118914;-72
2022/03/27 04:30:00;;;;;;;3.67;1.50;;;-2.60;1.00;;;-3.30;65.49;99554.09;5025160;27;129209;-73
2022/03/27 04:32:49;;;;;;;4.22;1.85;;;-2.60;1.00;;;-3.28;65.71;99574.06;5024771;27;129681;-73
2022/03/27 04:38:34;;;;;;;3.42;1.42;;;-2.60;1.00;;;-3.20;64.84;99585.44;5015026;27;119343;-75
2022/03/27 04:41:33;;;;;;;4.35;1.67;;;-2.60;1.00;;;-3.22;63.92;99603.44;5026058;27;129875;-72
2022/03/27 04:44:07;;;;;;;2.80;1.60;;;-2.60;1.00;;;-3.08;64.23;99597.78;5026963;27;129643;-72
2022/03/27 04:46:44;;;;;;;4.03;1.30;;;-2.50;1.00;;;-3.02;62.81;99598.75;5023870;27;119641;-71
2022/03/27 04:49:28;;;;;;;3.67;1.42;;;-2.50;1.00;;;-3.00;62.68;99625.88;5024886;27;119201;-73
2022/03/27 04:52:04;;;;;;;3.00;1.50;;;-2.40;1.00;;;-2.77;62.06;99611.16;5022857;27;129768;-74
2022/03/27 04:57:53;;;;;;;3.13;1.70;;;-2.20;1.00;;;-2.41;60.60;99615.66;5042732;27;122003;-72
2022/03/27 05:01:03;;;;;;;5.82;1.90;;;-2.10;1.00;;;-2.39;60.20;99649.97;5041321;27;122132;-73
2022/03/27 05:04:00;;;;;;;4.20;1.60;;;-2.00;1.00;;;-2.40;60.50;99617.28;5042811;27;129935;-70
2022/03/27 05:07:12;;;;;;;3.30;1.48;;;-2.00;1.00;;;-2.44;61.06;99620.59;5025321;27;129071;-72
2022/03/27 05:09:41;;;;;;;1.85;1.10;;;-2.10;1.00;;;-2.21;60.69;99620.72;5040695;27;119564;-72
2022/03/27 05:12:18;;;;;;;4.18;1.60;;;-2.00;1.00;;;-2.30;60.48;99627.38;5043883;27;118894;-73
2022/03/27 05:15:09;;;;;;;2.42;1.45;;;-2.10;1.00;;;-2.39;59.07;99626.84;5025311;27;129220;-71
2022/03/27 05:18:16;;;;;;;2.30;1.40;;;-2.10;1.00;;;-2.29;57.67;99631.66;5042773;27;129444;-70
2022/03/27 05:20:53;;;;;;;2.85;1.75;;;-2.10;1.00;;;-2.29;57.01;99660.91;5040603;27;119558;-73
2022/03/27 05:23:33;;;;;;;3.22;1.50;;;-2.00;1.00;;;-2.27;56.62;99656.19;5006868;27;119774;-69
2022/03/27 05:26:02;;;;;;;2.90;1.40;;;-2.00;1.00;;;-2.09;57.15;99665.16;5020619;27;130379;-72
2022/03/27 05:28:32;;;;;;;1.98;1.38;;;-1.90;1.00;;;-2.09;54.97;99670.47;5008279;27;129998;-72
2022/03/27 05:31:08;;;;;;;2.35;1.63;;;-1.90;1.00;;;-1.86;54.49;99662.59;5040110;27;119429;-69
2022/03/27 05:33:43;;;;;;;;;;;-1.70;1.00;;;-1.67;53.88;99657.22;5025907;27;118362;-71
2022/03/27 05:36:12;;;;;;;3.03;1.50;;;-1.60;1.00;;;-1.59;54.38;99662.25;5039920;27;129870;-72
2022/03/27 05:38:44;;;;;;;1.70;1.25;;;-1.60;1.00;;;-1.49;54.89;99665.16;5021416;27;130738;-71
2022/03/27 05:41:17;;;;;;;2.53;1.30;;;-1.50;1.00;;;-1.60;55.47;99681.91;5039930;27;119644;-72
2022/03/27 05:43:57;;;;;;;2.30;1.40;;;-1.50;1.00;;;-1.60;54.40;99686.44;5026057;27;119607;-70
2022/03/27 05:49:26;;;;;;;;;;;-1.80;1.00;;;-1.74;55.60;99693.78;5041983;27;129348;-71
2022/03/27 05:51:55;;;;;;;2.95;1.50;;;-1.60;1.00;;;-1.60;53.96;99684.56;5006757;27;121394;-71
2022/03/27 05:54:25;;;;;;;2.70;1.40;;;-1.60;1.00;;;-1.66;54.09;99696.13;5025026;27;121121;-70
2022/03/27 05:57:02;;;;;;;1.98;1.33;;;-1.70;1.00;;;-1.47;53.48;99695.00;5024388;27;129901;-72
2022/03/27 05:59:35;;;;;;;4.20;1.80;;;-1.50;1.00;;;-1.47;53.63;99689.69;5020565;27;129456;-71
2022/03/27 06:02:16;;;;;;;4.78;2.47;;;-1.60;1.00;;;-1.42;52.90;99688.19;5019564;28;119516;-74
2022/03/27 06:04:51;;;;;;;2.67;1.90;;;-1.50;1.00;;;-1.71;52.62;99725.25;5020898;28;119635;-71
2022/03/27 06:07:21;;;;;;;3.55;1.42;;;-1.60;1.00;;;-1.99;53.54;99708.00;4987792;28;129032;-74
2022/03/27 06:09:51;;;;;;;2.25;1.55;;;-1.70;1.00;;;-1.98;53.42;99717.59;5019263;28;129566;-70
2022/03/27 06:12:23;;;;;;;3.88;1.42;;;-1.70;1.00;;;-1.91;53.02;99698.91;5004269;28;119608;-71
2022/03/27 06:14:53;;;;;;;3.83;2.28;;;-1.60;1.00;;;-1.36;51.88;99709.41;5004181;28;118229;-71
2022/03/27 06:17:22;;;;;;;4.38;1.73;;;-1.40;1.00;;;-1.33;50.96;99721.44;5001512;28;130480;-72
2022/03/27 06:19:54;;;;;;;3.13;1.25;;;-1.40;1.00;;;-1.49;51.72;99723.72;4986261;28;129181;-69
2022/03/27 06:22:23;;;;;;;2.67;1.50;;;-1.40;1.00;;;-1.46;52.49;99733.91;4986748;28;119299;-73
2022/03/27 06:24:55;;;;;;;6.03;2.40;;;-1.40;1.00;;;-1.32;52.40;99723.09;5018903;28;119955;-70
2022/03/27 06:27:23;;;;;;;3.05;1.50;;;-1.40;1.00;;;-0.89;51.51;99721.97;5003828;28;129852;-71
2022/03/27 06:29:55;;;;;;;3.15;1.75;;;-1.10;1.00;;;-1.07;50.66;99741.53;5018539;28;130297;-71
2022/03/27 06:32:28;;;;;;;5.18;2.20;;;-1.30;1.00;;;-1.10;50.65;99726.81;5003243;28;119897;-73
2022/03/27 06:35:01;;;;;;;3.53;1.40;;;-1.20;1.00;;;-1.09;50.93;99723.13;5002259;28;119489;-73
2022/03/27 06:37:33;;;;;;;2.13;1.45;;;-1.30;1.00;;;-1.20;51.19;99710.59;5003479;28;129883;-70
2022/03/27 06:40:05;;;;;;;3.90;1.40;;;-1.30;1.00;;;-1.02;51.71;99728.34;5001902;28;129069;-74
2022/03/27 06:42:34;;;;;;;2.13;1.42;;;-1.30;1.00;;;-0.99;51.78;99735.06;5002381;28;122493;-76
2022/03/27 06:45:08;;;;;;;2.67;1.50;;;-1.20;1.00;;;-0.80;51.25;99749.91;4981458;28;121907;-74
2022/03/27 06:47:39;;;;;;;2.17;1.60;;;-1.10;1.00;;;-0.27;50.56;99729.50;4998504;28;130373;-75
2022/03/27 06:50:15;;;;;;;2.28;1.45;;;-0.70;1.00;;;-0.21;50.29;99749.91;5001675;28;130094;-70
2022/03/27 06:52:47;;;;;;;3.13;1.60;;;-0.70;1.00;;;-0.38;50.55;99789.81;4970210;28;120480;-70
2022/03/27 06:55:18;;;;;;;2.75;1.50;;;-0.80;1.00;;;-0.29;50.30;99746.81;4988187;28;119172;-75
2022/03/27 06:57:51;;;;;;;3.75;1.60;;;-0.80;1.00;;;-0.22;49.47;99748.31;5000577;28;129938;-73
2022/03/27 07:03:16;;;;;;;4.10;1.90;;;-0.60;1.00;;;0.48;47.91;99743.00;4973498;28;119250;-75
2022/03/27 07:05:48;;;;;;;3.30;1.20;;;-0.20;1.00;;;0.11;47.62;99740.66;4984915;28;119431;-73
2022/03/27 07:08:21;;;;;;;5.20;1.60;;;-0.40;1.00;;;0.03;45.82;99754.41;5001258;28;129922;-71
2022/03/27 07:47:16;;;;;;;3.35;1.70;;;-0.60;1.00;;;0.69;43.97;99762.88;5117415;27;102778;-74
2022/03/27 07:49:53;;;;;;;1.83;1.27;;;0.00;1.00;;;0.56;44.96;99769.31;5063061;27;113923;-73
2022/03/27 07:52:27;;;;;;;3.30;1.27;;;0.10;1.00;;;0.59;43.02;99776.84;5057062;27;129920;-72
2022/03/27 07:55:00;;;;;;;2.05;1.23;;;0.00;1.00;;;0.20;42.60;99771.28;5044005;27;128960;-72
2022/03/27 07:57:32;;;;;;;2.13;1.10;;;-0.30;1.00;;;0.12;42.38;99785.00;5042466;27;118512;-72
2022/03/27 08:00:03;;;;;;;3.25;1.38;;;-0.30;1.00;;;0.23;41.97;99775.34;5059868;27;113173;-70
2022/03/27 08:02:58;;;;;;;5.72;2.05;;;-0.10;1.00;;;0.34;41.68;99772.66;5059776;27;129392;-72
2022/03/27 09:17:07;;;;;;;3.88;1.67;;;0.30;1.00;;;1.20;36.68;99832.44;5104961;27;102685;-72
2022/03/27 09:19:43;;;;;;;3.10;1.35;;;0.60;1.00;;;1.25;37.61;99822.66;5078686;27;113822;-76
2022/03/27 09:22:17;;;;;;;5.25;1.95;;;0.60;1.00;;;1.52;37.42;99802.47;5077792;27;129788;-71
2022/03/27 09:24:49;;;;;;;4.35;1.40;;;0.80;1.00;;;1.52;37.58;99799.81;5079849;27;129247;-73
2022/03/27 09:27:28;;;;;;;2.67;1.27;;;1.00;1.00;;;1.26;37.68;99799.38;5078287;27;119287;-74
2022/03/27 09:29:59;;;;;;;6.53;2.92;;;0.70;1.00;;;1.80;37.62;99818.41;5077362;27;113619;-72
2022/03/27 09:32:32;;;;;;;6.78;2.78;;;1.30;1.00;;;2.02;37.34;99806.94;5080089;27;128544;-71
2022/03/27 09:35:05;;;;;;;4.00;1.42;;;1.40;1.00;;;1.83;36.92;99811.78;5075728;27;130284;-71
2022/03/27 09:37:38;;;;;;;2.80;1.60;;;1.20;1.00;;;1.46;34.84;99822.19;5078346;27;119316;-75
2022/03/27 09:40:09;;;;;;;2.05;1.30;;;0.90;1.00;;;1.09;36.59;99847.50;5080450;27;112822;-76
2022/03/27 09:42:40;;;;;;;3.83;1.35;;;0.80;1.00;;;0.99;34.72;99826.75;5068110;27;129860;-75
2022/03/27 09:45:23;;;;;;;4.82;2.03;;;0.70;1.00;;;1.48;34.60;99834.28;5074918;27;130062;-73
2022/03/27 09:47:54;;;;;;;3.38;1.30;;;1.20;1.00;;;1.50;33.77;99828.69;5071984;27;118788;-74
2022/03/27 09:50:34;;;;;;;3.78;1.75;;;1.10;1.00;;;1.56;35.17;99825.03;5060568;27;113817;-74
2022/03/27 09:53:29;;;;;;;2.10;1.40;;;1.20;1.00;;;1.55;33.89;99839.44;5076083;27;130365;-75
2022/03/27 09:56:20;;;;;;;3.75;2.20;;;1.10;1.00;;;1.79;34.44;99845.44;5077950;27;129467;-77
2022/03/27 09:58:49;;;;;;;2.88;1.20;;;1.40;1.00;;;1.72;34.87;99861.66;5076574;27;118995;-72
2022/03/27 10:01:22;;;;;;;3.10;1.33;;;1.40;1.00;;;1.76;33.26;99836.03;5062417;27;112732;-74
2022/03/27 10:04:07;;;;;;;3.78;1.70;;;1.40;1.00;;;1.30;32.76;99832.63;5062065;27;129278;-76
2022/03/27 10:06:39;;;;;;;2.97;1.23;;;1.10;1.00;;;1.17;32.82;99848.97;5077518;27;130089;-75
2022/03/27 10:09:10;;;;;;;3.28;1.60;;;0.90;1.00;;;1.66;34.23;99862.63;5077876;27;119216;-74
2022/03/27 10:11:41;;;;;;;2.45;1.30;;;1.40;1.00;;;1.28;32.78;99882.03;5078321;27;113515;-75
2022/03/27 10:14:13;;;;;;;1.85;1.23;;;1.00;1.00;;;1.21;33.53;99860.81;5079127;27;129198;-73
2022/03/27 10:16:47;;;;;;;3.65;1.60;;;0.90;1.00;;;1.75;33.72;99860.38;5073467;27;129796;-73
2022/03/27 10:19:28;;;;;;;3.28;1.65;;;1.50;1.00;;;2.04;33.74;99860.25;5062822;27;119221;-74
2022/03/27 10:21:58;;;;;;;2.35;1.35;;;1.70;1.00;;;1.68;31.79;99876.56;5066293;27;113386;-75
2022/03/27 10:24:31;;;;;;;3.30;1.88;;;1.20;1.00;;;1.67;32.76;99884.84;5065634;27;130532;-74
2022/03/27 10:27:03;;;;;;;3.22;1.10;;;1.30;1.00;;;1.33;33.26;99848.19;5065605;27;129365;-74
2022/03/27 10:29:32;;;;;;;2.88;1.40;;;1.10;1.00;;;1.79;32.45;99850.78;5065926;27;119258;-73
2022/03/27 10:32:02;;;;;;;6.25;1.30;;;1.40;1.00;;;1.71;31.68;99892.13;5064215;27;113995;-74
2022/03/27 10:34:37;;;;;;;8.65;3.60;;;1.30;1.00;;;1.50;32.19;99852.75;5063842;27;130811;-73
2022/03/27 10:37:17;;;;;;;4.32;1.83;;;1.00;1.00;;;1.50;32.38;99863.44;5069576;27;129294;-75
2022/03/27 10:39:55;;;;;;;8.68;4.05;;;1.20;1.00;;;1.73;32.46;99870.47;5068712;27;119286;-75
2022/03/27 10:42:33;;;;;;;2.97;1.45;;;1.40;1.00;;;1.80;32.62;99863.91;5068754;27;114230;-75
2022/03/27 10:45:09;;;;;;;2.25;1.20;;;1.50;1.00;;;1.80;32.46;99879.97;5069006;27;129981;-72
2022/03/27 10:47:38;;;;;;;9.32;1.77;;;1.50;1.00;;;2.03;32.58;99893.44;5068845;27;129250;-76
2022/03/27 10:50:26;;;;;;;3.53;1.60;;;1.70;1.00;;;1.74;30.93;99880.94;5070013;27;118772;-75
2022/03/27 10:53:10;;;;;;;3.42;1.20;;;1.50;1.00;;;1.66;30.13;99888.59;5069938;27;113556;-75
2022/03/27 10:55:43;;;;;;;6.00;2.60;;;1.40;1.00;;;1.83;30.43;99872.53;5048689;27;130056;-66
2022/03/27 10:58:39;;;;;;;5.93;1.45;;;1.50;1.00;;;2.12;28.90;99875.88;5042620;27;129539;-65
2022/03/27 11:01:10;;;;;;;2.05;1.42;;;1.70;1.00;;;1.31;30.86;99892.25;5044824;27;117598;-69
2022/03/27 11:03:52;;;;;;;4.47;2.20;;;1.50;1.00;;;1.59;30.79;99872.66;5042537;27;113623;-69
2022/03/27 11:06:27;;;;;;;3.80;1.00;;;1.70;1.00;;;1.54;30.55;99869.91;5041976;27;130119;-73
2022/03/27 11:08:59;;;;;;;2.40;1.15;;;1.60;1.00;;;1.46;30.65;99883.69;5044335;27;129118;-74
2022/03/27 11:12:05;;;;;;;2.22;1.70;;;1.50;1.00;;;1.53;30.71;99874.47;5042403;27;119692;-73
2022/03/27 11:14:58;;;;;;;1.85;0.95;;;1.60;1.00;;;1.33;29.52;99869.59;5041984;27;113572;-73
2022/03/27 11:17:52;;;;;;;2.95;1.70;;;1.40;1.00;;;1.21;29.36;99877.66;5026754;27;129472;-73
2022/03/27 11:20:49;;;;;;;2.85;1.70;;;1.50;1.00;;;1.65;30.71;99860.19;5026194;27;128689;-74
2022/03/27 11:23:36;;;;;;;3.10;1.50;;;1.80;1.00;;;2.53;27.90;99870.28;5039671;27;119482;-73
2022/03/27 11:26:34;;;;;;;2.10;0.90;;;2.30;1.00;;;2.21;28.01;99860.22;5043498;27;112322;-74
2022/03/27 11:29:19;;;;;;;2.80;0.93;;;1.90;1.00;;;1.93;27.94;99852.09;5040689;27;130465;-74
2022/03/27 11:32:07;;;;;;;2.30;1.15;;;1.80;1.00;;;1.55;28.32;99861.66;5041906;27;129831;-75
2022/03/27 11:34:37;;;;;;;3.60;1.23;;;1.80;1.00;;;1.89;28.79;99858.16;5041641;27;119090;-73
2022/03/27 11:37:25;;;;;;;2.17;1.10;;;1.90;1.00;;;2.00;28.79;99865.28;5044135;27;113551;-76
2022/03/27 11:39:56;;;;;;;1.23;0.80;;;2.00;1.00;;;1.85;29.46;99870.41;5040311;27;130116;-74
2022/03/27 11:42:35;;;;;;;1.88;1.08;;;2.00;1.00;;;1.88;30.34;99875.28;5040225;27;129646;-73
2022/03/27 11:45:16;;;;;;;3.97;1.23;;;2.10;1.00;;;2.27;30.41;99856.53;5041707;27;119089;-76
2022/03/27 11:47:49;;;;;;;1.35;1.10;;;2.30;1.00;;;2.24;29.05;99868.56;5041805;27;113733;-74
2022/03/27 11:50:34;;;;;;;4.20;1.30;;;2.30;1.00;;;2.32;29.11;99860.13;5041005;27;131157;-74
2022/03/27 11:53:04;;;;;;;1.50;1.10;;;2.50;1.00;;;2.17;29.95;99862.59;5041047;27;129917;-75
2022/03/27 11:55:37;;;;;;;4.53;1.60;;;2.40;1.00;;;2.70;28.85;99871.03;5040402;27;118812;-76
2022/03/27 11:58:07;;;;;;;4.88;1.88;;;2.50;1.00;;;2.65;27.04;99862.91;5041839;27;113694;-76
2022/03/27 12:00:40;;;;;;;6.03;1.67;;;2.30;1.00;;;2.67;27.60;99866.16;5041840;27;131051;-78
2022/03/27 12:03:19;;;;;;;3.10;1.63;;;2.40;1.00;;;2.87;26.31;99852.97;5043549;27;129647;-77
2022/03/27 12:05:50;;;;;;;2.97;1.38;;;2.50;1.00;;;2.39;27.43;99854.56;5041382;27;119242;-77
2022/03/27 12:08:20;;;;;;;3.05;1.52;;;2.50;1.00;;;2.91;26.65;99863.22;5041899;27;113667;-76
2022/03/27 12:10:56;;;;;;;2.17;1.35;;;2.70;1.00;;;2.82;26.92;99847.56;5041035;27;130555;-77
2022/03/27 12:13:27;;;;;;;2.07;1.30;;;2.60;1.00;;;2.95;25.66;99850.94;5041093;27;130456;-77
2022/03/27 12:15:56;;;;;;;3.10;1.40;;;2.60;1.00;;;3.12;25.21;99854.31;5043900;27;119181;-73
2022/03/27 12:18:30;;;;;;;5.63;1.60;;;2.70;1.00;;;2.77;25.76;99835.97;5060735;27;113771;-74
2022/03/27 12:21:03;;;;;;;9.00;1.98;;;2.50;1.00;;;2.61;25.60;99893.97;5041482;27;129793;-73
2022/03/27 12:23:34;;;;;;;4.60;1.20;;;2.50;1.00;;;1.96;26.09;99858.78;5039752;27;130640;-74
2022/03/27 12:31:54;;;;;;;3.42;1.50;;;2.70;1.00;;;2.53;26.04;99848.84;5043936;27;129847;-77
2022/03/27 12:34:23;;;;;;;2.70;1.75;;;2.50;1.00;;;2.12;26.81;99841.06;5041223;27;129327;-76
2022/03/27 12:37:14;;;;;;;3.30;1.77;;;2.30;1.00;;;2.12;27.12;99851.78;5044893;27;118460;-73
2022/03/27 12:40:03;;;;;;;3.58;1.75;;;2.40;1.00;;;2.09;27.37;99863.81;5041169;27;112884;-75
2022/03/27 12:42:43;;;;;;;3.10;1.70;;;2.50;1.00;;;2.37;28.51;99840.63;5044311;27;128747;-76
2022/03/27 12:45:17;;;;;;;6.68;2.42;;;2.80;1.00;;;2.80;26.77;99820.19;5044320;27;128460;-74
2022/03/27 12:47:48;;;;;;;3.58;1.40;;;2.80;1.00;;;2.75;26.26;99857.66;5043406;27;118792;-77
2022/03/27 12:50:31;;;;;;;3.63;1.52;;;2.70;1.00;;;2.32;27.72;99843.22;5043518;27;113232;-71
2022/03/27 12:53:04;;;;;;;2.95;1.27;;;2.60;1.00;;;2.31;27.47;99846.97;5040818;27;130734;-73
2022/03/27 12:55:45;;;;;;;3.78;1.40;;;2.60;1.00;;;3.10;26.87;99826.94;5040595;27;129369;-71
2022/03/27 12:58:19;;;;;;;3.15;1.30;;;3.00;1.00;;;3.09;26.24;99838.72;5025936;27;119005;-73
2022/03/27 13:01:05;;;;;;;2.75;1.10;;;3.00;1.00;;;3.33;25.92;99817.75;5040924;27;113795;-72
2022/03/27 13:03:36;;;;;;;7.87;1.20;;;3.00;1.00;;;3.02;25.75;99808.63;5040485;27;129815;-75
2022/03/27 13:06:07;;;;;;;4.00;1.20;;;2.80;1.00;;;2.98;25.95;99837.03;5040341;27;130043;-73